createdAt,value
2024-05-09T00:00:22.036Z,9.26
2024-05-09T00:01:14.665Z,9.28
2024-05-09T00:02:14.577Z,9.28
2024-05-09T00:03:14.589Z,9.29
2024-05-09T00:04:14.558Z,9.24
2024-05-09T00:05:14.792Z,9.15
2024-05-09T00:06:14.554Z,9.11
2024-05-09T00:07:14.505Z,9.11
2024-05-09T00:08:14.555Z,9.13
2024-05-09T00:09:14.473Z,9.13
2024-05-09T00:10:22.631Z,9.10
2024-05-09T00:11:14.586Z,9.05
2024-05-09T00:12:14.464Z,8.99
2024-05-09T00:13:14.421Z,8.94
2024-05-09T00:14:14.444Z,8.89
2024-05-09T00:15:14.399Z,8.84
2024-05-09T00:16:14.461Z,8.77
2024-05-09T00:17:14.504Z,8.79
2024-05-09T00:18:14.515Z,8.79
2024-05-09T00:19:14.652Z,8.74
2024-05-09T00:20:20.443Z,8.70
2024-05-09T00:21:14.407Z,8.73
2024-05-09T00:22:14.341Z,8.76
2024-05-09T00:23:14.438Z,8.79
2024-05-09T00:24:14.272Z,8.76
2024-05-09T00:25:14.268Z,8.68
2024-05-09T00:26:14.368Z,8.62
2024-05-09T00:27:14.239Z,8.58
2024-05-09T00:28:14.240Z,8.50
2024-05-09T00:29:14.269Z,8.47
2024-05-09T00:30:21.127Z,8.44
2024-05-09T00:31:14.188Z,8.43
2024-05-09T00:32:14.247Z,8.41
2024-05-09T00:33:14.456Z,8.38
2024-05-09T00:34:14.275Z,8.40
2024-05-09T00:35:14.197Z,8.43
2024-05-09T00:36:14.120Z,8.38
2024-05-09T00:37:14.114Z,8.36
2024-05-09T00:38:14.152Z,8.30
2024-05-09T00:39:14.092Z,8.29
2024-05-09T00:40:18.779Z,8.30
2024-05-09T00:41:16.350Z,8.34
2024-05-09T00:42:14.047Z,8.40
2024-05-09T00:43:15.025Z,8.43
2024-05-09T00:44:14.026Z,8.41
2024-05-09T00:45:13.986Z,8.41
2024-05-09T00:46:13.971Z,8.43
2024-05-09T00:47:14.092Z,8.43
2024-05-09T00:48:16.301Z,8.44
2024-05-09T00:49:14.001Z,8.44
2024-05-09T00:50:19.291Z,8.43
2024-05-09T00:51:13.999Z,8.44
2024-05-09T00:52:13.914Z,8.43
2024-05-09T00:53:14.006Z,8.41
2024-05-09T00:54:13.873Z,8.40
2024-05-09T00:55:13.883Z,8.40
2024-05-09T00:56:13.872Z,8.37
2024-05-09T00:57:13.851Z,8.37
2024-05-09T00:58:13.813Z,8.34
2024-05-09T00:59:13.894Z,8.29
2024-05-09T01:00:22.624Z,8.33
2024-05-09T01:01:13.825Z,8.36
2024-05-09T01:02:13.941Z,8.37
2024-05-09T01:03:14.535Z,8.34
2024-05-09T01:04:13.798Z,8.37
2024-05-09T01:05:13.780Z,8.38
2024-05-09T01:06:13.716Z,8.40
2024-05-09T01:07:13.710Z,8.40
2024-05-09T01:08:13.774Z,8.37
2024-05-09T01:09:13.707Z,8.37
2024-05-09T01:10:20.858Z,8.33
2024-05-09T01:11:13.708Z,8.29
2024-05-09T01:12:13.916Z,8.28
2024-05-09T01:13:13.671Z,8.33
2024-05-09T01:14:13.698Z,8.33
2024-05-09T01:15:13.627Z,8.28
2024-05-09T01:16:13.610Z,8.29
2024-05-09T01:17:13.650Z,8.33
2024-05-09T01:18:14.120Z,8.34
2024-05-09T01:19:13.759Z,8.33
2024-05-09T01:20:20.032Z,8.34
2024-05-09T01:21:13.859Z,8.34
2024-05-09T01:22:13.686Z,8.38
2024-05-09T01:23:15.436Z,8.37
2024-05-09T01:24:13.476Z,8.40
2024-05-09T01:25:13.520Z,8.38
2024-05-09T01:26:13.549Z,8.40
2024-05-09T01:27:13.441Z,8.43
2024-05-09T01:28:13.455Z,8.44
2024-05-09T01:29:13.466Z,8.43
2024-05-09T01:30:17.425Z,8.41
2024-05-09T01:31:13.398Z,8.40
2024-05-09T01:32:13.538Z,8.30
2024-05-09T01:33:13.877Z,8.30
2024-05-09T01:34:13.496Z,8.25
2024-05-09T01:35:13.352Z,8.26
2024-05-09T01:36:13.340Z,8.26
2024-05-09T01:37:13.355Z,8.28
2024-05-09T01:38:13.992Z,8.28
2024-05-09T01:39:13.287Z,8.30
2024-05-09T01:40:18.536Z,8.33
2024-05-09T01:41:13.309Z,8.30
2024-05-09T01:42:13.236Z,8.33
2024-05-09T01:43:13.290Z,8.30
2024-05-09T01:44:13.242Z,8.26
2024-05-09T01:45:13.237Z,8.22
2024-05-09T01:46:13.194Z,8.18
2024-05-09T01:47:13.296Z,8.15
2024-05-09T01:48:13.386Z,8.08
2024-05-09T01:49:13.295Z,8.07
2024-05-09T01:50:16.401Z,8.07
2024-05-09T01:51:13.312Z,8.05
2024-05-09T01:52:13.134Z,8.02
2024-05-09T01:53:13.760Z,8.01
2024-05-09T01:54:13.082Z,8.00
2024-05-09T01:55:13.090Z,7.97
2024-05-09T01:56:13.096Z,7.92
2024-05-09T01:57:13.076Z,7.89
2024-05-09T01:58:13.050Z,7.90
2024-05-09T01:59:13.078Z,7.89
2024-05-09T02:00:15.771Z,7.87
2024-05-09T02:01:13.084Z,7.87
2024-05-09T02:02:13.103Z,7.87
2024-05-09T02:03:15.921Z,7.92
2024-05-09T02:04:13.099Z,7.92
2024-05-09T02:05:13.127Z,7.89
2024-05-09T02:06:13.057Z,7.85
2024-05-09T02:07:12.915Z,7.85
2024-05-09T02:08:13.030Z,7.89
2024-05-09T02:09:12.906Z,7.87
2024-05-09T02:10:20.172Z,7.87
2024-05-09T02:11:13.023Z,7.85
2024-05-09T02:12:13.072Z,7.87
2024-05-09T02:13:12.944Z,7.86
2024-05-09T02:14:12.882Z,7.86
2024-05-09T02:15:12.827Z,7.89
2024-05-09T02:16:12.825Z,7.87
2024-05-09T02:17:12.825Z,7.86
2024-05-09T02:18:13.430Z,7.87
2024-05-09T02:19:13.039Z,7.92
2024-05-09T02:20:18.905Z,7.92
2024-05-09T02:21:12.780Z,7.90
2024-05-09T02:22:12.746Z,7.89
2024-05-09T02:23:12.996Z,7.86
2024-05-09T02:24:12.693Z,7.83
2024-05-09T02:25:12.688Z,7.82
2024-05-09T02:26:12.768Z,7.80
2024-05-09T02:27:12.669Z,7.82
2024-05-09T02:28:12.663Z,7.80
2024-05-09T02:29:12.663Z,7.80
2024-05-09T02:30:18.970Z,7.79
2024-05-09T02:31:12.606Z,7.75
2024-05-09T02:32:12.663Z,7.77
2024-05-09T02:33:14.232Z,7.75
2024-05-09T02:34:12.680Z,7.72
2024-05-09T02:35:12.603Z,7.69
2024-05-09T02:36:12.556Z,7.71
2024-05-09T02:37:12.536Z,7.68
2024-05-09T02:38:13.125Z,7.64
2024-05-09T02:39:12.502Z,7.67
2024-05-09T02:40:14.902Z,7.58
2024-05-09T02:41:12.517Z,7.53
2024-05-09T02:42:12.459Z,7.52
2024-05-09T02:43:13.094Z,7.48
2024-05-09T02:44:12.506Z,7.45
2024-05-09T02:45:12.420Z,7.39
2024-05-09T02:46:12.426Z,7.34
2024-05-09T02:47:12.502Z,7.30
2024-05-09T02:48:13.543Z,7.25
2024-05-09T02:49:12.644Z,7.24
2024-05-09T02:51:12.393Z,7.20
2024-05-09T02:52:12.331Z,7.16
2024-05-09T02:53:12.483Z,7.17
2024-05-09T02:54:12.342Z,7.15
2024-05-09T02:55:12.287Z,7.13
2024-05-09T02:56:12.347Z,7.07
2024-05-09T02:57:12.273Z,7.03
2024-05-09T02:58:12.350Z,6.97
2024-05-09T02:59:12.350Z,6.92
2024-05-09T03:00:18.813Z,6.94
2024-05-09T03:01:12.296Z,6.97
2024-05-09T03:02:12.374Z,7.02
2024-05-09T03:03:14.446Z,6.98
2024-05-09T03:04:12.226Z,6.97
2024-05-09T03:05:12.204Z,6.97
2024-05-09T03:06:12.179Z,6.94
2024-05-09T03:07:12.163Z,6.94
2024-05-09T03:08:12.397Z,6.95
2024-05-09T03:09:12.120Z,6.98
2024-05-09T03:10:18.443Z,6.98
2024-05-09T03:11:12.322Z,7.03
2024-05-09T03:12:12.273Z,7.05
2024-05-09T03:13:13.242Z,7.05
2024-05-09T03:14:12.112Z,7.07
2024-05-09T03:15:12.023Z,7.09
2024-05-09T03:16:12.029Z,7.10
2024-05-09T03:17:12.109Z,7.13
2024-05-09T03:18:12.750Z,7.13
2024-05-09T03:19:12.474Z,7.09
2024-05-09T03:20:20.327Z,7.03
2024-05-09T03:21:11.983Z,6.98
2024-05-09T03:22:11.975Z,6.94
2024-05-09T03:23:12.096Z,6.87
2024-05-09T03:24:11.997Z,6.89
2024-05-09T03:25:11.977Z,6.91
2024-05-09T03:26:12.146Z,6.88
2024-05-09T03:27:11.977Z,6.85
2024-05-09T03:28:11.978Z,6.84
2024-05-09T03:29:11.912Z,6.80
2024-05-09T03:31:11.814Z,6.80
2024-05-09T03:32:12.175Z,6.81
2024-05-09T03:33:13.353Z,6.80
2024-05-09T03:34:11.845Z,6.84
2024-05-09T03:35:11.787Z,6.87
2024-05-09T03:36:11.781Z,6.89
2024-05-09T03:37:11.757Z,6.91
2024-05-09T03:38:11.853Z,6.95
2024-05-09T03:39:11.721Z,6.95
2024-05-09T03:40:17.497Z,6.94
2024-05-09T03:41:11.797Z,6.88
2024-05-09T03:42:11.706Z,6.85
2024-05-09T03:43:11.665Z,6.84
2024-05-09T03:44:11.786Z,6.81
2024-05-09T03:45:11.660Z,6.79
2024-05-09T03:46:11.659Z,6.80
2024-05-09T03:47:11.678Z,6.85
2024-05-09T03:48:11.981Z,6.91
2024-05-09T03:49:11.710Z,6.91
2024-05-09T03:50:18.346Z,6.91
2024-05-09T03:51:11.873Z,6.92
2024-05-09T03:52:11.582Z,6.92
2024-05-09T03:53:11.746Z,6.89
2024-05-09T03:54:11.548Z,6.87
2024-05-09T03:55:11.511Z,6.84
2024-05-09T03:56:11.540Z,6.85
2024-05-09T03:57:11.501Z,6.88
2024-05-09T03:58:11.519Z,6.88
2024-05-09T03:59:11.570Z,6.91
2024-05-09T04:00:17.884Z,6.97
2024-05-09T04:01:11.530Z,6.98
2024-05-09T04:02:11.517Z,6.97
2024-05-09T04:03:12.850Z,6.98
2024-05-09T04:04:11.482Z,7.05
2024-05-09T04:05:11.416Z,7.09
2024-05-09T04:06:11.370Z,7.13
2024-05-09T04:07:11.370Z,7.10
2024-05-09T04:08:11.759Z,7.07
2024-05-09T04:09:11.329Z,7.06
2024-05-09T04:10:20.665Z,7.02
2024-05-09T04:11:11.423Z,7.02
2024-05-09T04:12:11.368Z,7.03
2024-05-09T04:13:11.370Z,6.99
2024-05-09T04:14:11.304Z,7.03
2024-05-09T04:15:13.251Z,6.99
2024-05-09T04:16:11.239Z,6.98
2024-05-09T04:17:11.418Z,6.97
2024-05-09T04:18:11.350Z,6.95
2024-05-09T04:19:11.326Z,6.94
2024-05-09T04:20:21.070Z,6.92
2024-05-09T04:21:11.235Z,6.94
2024-05-09T04:22:11.169Z,6.92
2024-05-09T04:23:11.474Z,6.92
2024-05-09T04:24:11.168Z,6.94
2024-05-09T04:25:11.120Z,6.94
2024-05-09T04:26:11.202Z,6.97
2024-05-09T04:27:11.108Z,6.98
2024-05-09T04:28:11.091Z,6.99
2024-05-09T04:29:11.112Z,7.03
2024-05-09T04:30:18.566Z,7.09
2024-05-09T04:31:11.100Z,7.13
2024-05-09T04:32:11.141Z,7.17
2024-05-09T04:33:13.138Z,7.24
2024-05-09T04:34:11.138Z,7.25
2024-05-09T04:35:11.042Z,7.30
2024-05-09T04:36:11.006Z,7.32
2024-05-09T04:37:10.984Z,7.37
2024-05-09T04:38:11.085Z,7.42
2024-05-09T04:39:10.945Z,7.45
2024-05-09T04:40:20.927Z,7.50
2024-05-09T04:41:10.988Z,7.57
2024-05-09T04:42:10.918Z,7.58
2024-05-09T04:43:10.888Z,7.61
2024-05-09T04:44:10.939Z,7.67
2024-05-09T04:45:10.881Z,7.68
2024-05-09T04:46:10.867Z,7.68
2024-05-09T04:47:10.985Z,7.72
2024-05-09T04:48:11.139Z,7.75
2024-05-09T04:49:10.908Z,7.77
2024-05-09T04:50:14.539Z,7.86
2024-05-09T04:51:10.855Z,7.87
2024-05-09T04:52:10.776Z,7.89
2024-05-09T04:53:11.596Z,7.92
2024-05-09T04:54:18.699Z,7.97
2024-05-09T04:55:10.753Z,8.02
2024-05-09T04:56:10.755Z,8.05
2024-05-09T04:57:10.762Z,8.10
2024-05-09T04:58:10.708Z,8.12
2024-05-09T04:59:10.701Z,8.12
2024-05-09T05:00:14.782Z,8.15
2024-05-09T05:01:10.712Z,8.16
2024-05-09T05:02:10.778Z,8.19
2024-05-09T05:03:13.027Z,8.19
2024-05-09T05:04:10.709Z,8.20
2024-05-09T05:05:11.967Z,8.22
2024-05-09T05:06:10.706Z,8.20
2024-05-09T05:07:10.595Z,8.22
2024-05-09T05:08:10.657Z,8.23
2024-05-09T05:09:10.576Z,8.25
2024-05-09T05:10:14.867Z,8.26
2024-05-09T05:11:10.566Z,8.26
2024-05-09T05:12:10.656Z,8.30
2024-05-09T05:13:10.503Z,8.34
2024-05-09T05:14:10.620Z,8.40
2024-05-09T05:15:10.490Z,8.45
2024-05-09T05:16:10.463Z,8.52
2024-05-09T05:17:10.476Z,8.55
2024-05-09T05:18:10.579Z,8.52
2024-05-09T05:19:13.511Z,8.53
2024-05-09T05:20:15.065Z,8.55
2024-05-09T05:21:10.484Z,8.55
2024-05-09T05:22:10.383Z,8.55
2024-05-09T05:23:10.439Z,8.55
2024-05-09T05:24:10.372Z,8.56
2024-05-09T05:25:10.355Z,8.56
2024-05-09T05:26:10.350Z,8.61
2024-05-09T05:27:10.330Z,8.63
2024-05-09T05:28:10.476Z,8.66
2024-05-09T05:29:10.322Z,8.71
2024-05-09T05:30:17.541Z,8.79
2024-05-09T05:31:10.333Z,8.86
2024-05-09T05:32:10.372Z,8.91
2024-05-09T05:33:10.422Z,8.96
2024-05-09T05:34:10.305Z,9.02
2024-05-09T05:35:10.295Z,9.08
2024-05-09T05:36:10.227Z,9.13
2024-05-09T05:37:10.212Z,9.15
2024-05-09T05:38:10.352Z,9.21
2024-05-09T05:39:10.192Z,9.26
2024-05-09T05:40:14.600Z,9.31
2024-05-09T05:41:10.204Z,9.38
2024-05-09T05:42:10.166Z,9.40
2024-05-09T05:43:10.677Z,9.48
2024-05-09T05:44:10.165Z,9.51
2024-05-09T05:45:10.087Z,9.58
2024-05-09T05:46:10.075Z,9.61
2024-05-09T05:47:10.194Z,9.68
2024-05-09T05:48:10.223Z,9.74
2024-05-09T05:49:10.431Z,9.78
2024-05-09T05:50:20.412Z,9.83
2024-05-09T05:51:10.070Z,9.89
2024-05-09T05:52:10.034Z,9.94
2024-05-09T05:53:10.564Z,10.04
2024-05-09T05:54:09.970Z,10.14
2024-05-09T05:55:09.982Z,10.22
2024-05-09T05:56:09.995Z,10.27
2024-05-09T05:57:09.950Z,10.34
2024-05-09T05:58:09.923Z,10.41
2024-05-09T05:59:11.009Z,10.47
2024-05-09T06:00:12.127Z,10.53
2024-05-09T06:01:09.915Z,10.56
2024-05-09T06:02:09.959Z,10.61
2024-05-09T06:03:10.794Z,10.66
2024-05-09T06:04:10.028Z,10.73
2024-05-09T06:05:10.055Z,10.79
2024-05-09T06:06:09.910Z,10.85
2024-05-09T06:07:09.807Z,10.91
2024-05-09T06:08:09.846Z,10.96
2024-05-09T06:09:09.783Z,11.02
2024-05-09T06:10:17.276Z,11.06
2024-05-09T06:11:09.862Z,11.11
2024-05-09T06:12:09.925Z,11.15
2024-05-09T06:13:09.717Z,11.19
2024-05-09T06:14:09.741Z,11.22
2024-05-09T06:15:09.690Z,11.27
2024-05-09T06:16:09.678Z,11.33
2024-05-09T06:17:09.756Z,11.36
2024-05-09T06:18:11.089Z,11.40
2024-05-09T06:19:09.770Z,11.43
2024-05-09T06:20:20.094Z,11.44
2024-05-09T06:21:09.692Z,11.47
2024-05-09T06:22:09.640Z,11.52
2024-05-09T06:23:10.364Z,11.52
2024-05-09T06:24:09.584Z,11.54
2024-05-09T06:25:09.580Z,11.58
2024-05-09T06:26:09.587Z,11.61
2024-05-09T06:27:09.550Z,11.62
2024-05-09T06:28:09.541Z,11.67
2024-05-09T06:29:09.539Z,11.73
2024-05-09T06:30:14.445Z,11.76
2024-05-09T06:31:09.501Z,11.80
2024-05-09T06:32:09.598Z,11.83
2024-05-09T06:33:10.853Z,11.85
2024-05-09T06:34:09.536Z,11.88
2024-05-09T06:35:09.444Z,11.95
2024-05-09T06:36:09.431Z,11.99
2024-05-09T06:37:09.426Z,11.98
2024-05-09T06:38:09.929Z,12.01
2024-05-09T06:39:09.374Z,12.02
2024-05-09T06:40:09.972Z,12.05
2024-05-09T06:41:09.407Z,12.09
2024-05-09T06:42:09.350Z,12.14
2024-05-09T06:43:09.342Z,12.20
2024-05-09T06:44:09.392Z,12.24
2024-05-09T06:45:09.315Z,12.31
2024-05-09T06:46:09.299Z,12.35
2024-05-09T06:47:09.517Z,12.39
2024-05-09T06:48:10.051Z,12.46
2024-05-09T06:49:09.443Z,12.52
2024-05-09T06:50:19.572Z,12.59
2024-05-09T06:51:09.359Z,12.65
2024-05-09T06:52:09.198Z,12.71
2024-05-09T06:53:09.602Z,12.78
2024-05-09T06:54:09.167Z,12.85
2024-05-09T06:55:09.205Z,12.90
2024-05-09T06:56:09.211Z,12.97
2024-05-09T06:57:09.149Z,13.04
2024-05-09T06:58:09.292Z,13.08
2024-05-09T06:59:09.133Z,13.12
2024-05-09T07:00:15.475Z,13.19
2024-05-09T07:01:09.179Z,13.20
2024-05-09T07:02:09.160Z,13.12
2024-05-09T07:03:09.770Z,13.12
2024-05-09T07:04:09.324Z,13.15
2024-05-09T07:05:09.105Z,13.17
2024-05-09T07:06:09.134Z,13.22
2024-05-09T07:07:09.033Z,13.28
2024-05-09T07:08:09.023Z,13.30
2024-05-09T07:09:09.012Z,13.33
2024-05-09T07:10:12.255Z,13.39
2024-05-09T07:11:09.043Z,13.44
2024-05-09T07:12:09.115Z,13.48
2024-05-09T07:13:08.964Z,13.49
2024-05-09T07:14:08.996Z,13.46
2024-05-09T07:15:08.918Z,13.48
2024-05-09T07:16:08.909Z,13.51
2024-05-09T07:17:09.184Z,13.51
2024-05-09T07:18:09.057Z,13.51
2024-05-09T07:19:09.093Z,13.55
2024-05-09T07:20:11.838Z,13.59
2024-05-09T07:21:08.924Z,13.59
2024-05-09T07:22:08.818Z,13.62
2024-05-09T07:23:08.909Z,13.67
2024-05-09T07:24:08.787Z,13.70
2024-05-09T07:25:08.796Z,13.77
2024-05-09T07:26:08.810Z,13.77
2024-05-09T07:27:08.746Z,13.79
2024-05-09T07:28:08.756Z,13.85
2024-05-09T07:29:08.796Z,13.89
2024-05-09T07:30:11.501Z,13.97
2024-05-09T07:31:08.727Z,14.04
2024-05-09T07:32:08.731Z,14.04
2024-05-09T07:33:08.914Z,14.06
2024-05-09T07:34:08.817Z,14.09
2024-05-09T07:35:08.684Z,14.17
2024-05-09T07:36:08.672Z,14.21
2024-05-09T07:37:08.635Z,14.24
2024-05-09T07:38:08.686Z,14.28
2024-05-09T07:39:08.629Z,14.28
2024-05-09T07:40:11.978Z,14.25
2024-05-09T07:41:08.618Z,14.28
2024-05-09T07:42:08.558Z,14.27
2024-05-09T07:43:08.554Z,14.32
2024-05-09T07:44:08.568Z,14.35
2024-05-09T07:45:29.559Z,14.37
2024-05-09T07:47:13.773Z,14.36
2024-05-09T07:50:33.317Z,14.36
2024-05-09T07:53:21.178Z,14.46
2024-05-09T07:53:47.263Z,14.55
2024-05-09T07:53:58.430Z,14.51
2024-05-09T07:54:54.070Z,14.47
2024-05-09T07:55:54.066Z,14.51
2024-05-09T07:56:53.921Z,14.57
2024-05-09T07:57:53.824Z,14.64
2024-05-09T07:58:54.396Z,14.72
2024-05-09T07:59:53.768Z,14.78
2024-05-09T08:00:53.831Z,14.88
2024-05-09T08:01:53.862Z,14.95
2024-05-09T08:02:53.743Z,15.01
2024-05-09T08:03:54.007Z,15.03
2024-05-09T08:04:53.796Z,15.06
2024-05-09T08:05:53.714Z,15.06
2024-05-09T08:06:53.689Z,15.06
2024-05-09T08:07:53.660Z,15.10
2024-05-09T08:08:53.646Z,15.14
2024-05-09T08:09:53.644Z,15.23
2024-05-09T08:10:53.698Z,15.31
2024-05-09T08:11:53.606Z,15.34
2024-05-09T08:12:53.616Z,15.38
2024-05-09T08:13:53.571Z,15.38
2024-05-09T08:14:53.529Z,15.43
2024-05-09T08:15:53.570Z,15.41
2024-05-09T08:16:53.616Z,15.46
2024-05-09T08:17:53.601Z,15.47
2024-05-09T08:18:53.603Z,15.51
2024-05-09T08:19:53.503Z,15.53
2024-05-09T08:20:53.556Z,15.54
2024-05-09T08:21:53.494Z,15.59
2024-05-09T08:22:53.439Z,15.64
2024-05-09T08:23:53.440Z,15.69
2024-05-09T08:24:53.447Z,15.69
2024-05-09T08:25:53.419Z,15.74
2024-05-09T08:26:53.387Z,15.71
2024-05-09T08:27:53.375Z,15.71
2024-05-09T08:28:53.382Z,15.69
2024-05-09T08:29:53.352Z,15.68
2024-05-09T08:30:53.448Z,15.71
2024-05-09T08:31:53.326Z,15.76
2024-05-09T08:32:53.358Z,15.82
2024-05-09T08:33:53.485Z,15.84
2024-05-09T08:34:53.365Z,15.89
2024-05-09T08:35:53.275Z,15.94
2024-05-09T08:36:53.392Z,16.02
2024-05-09T08:37:53.329Z,16.05
2024-05-09T08:38:53.218Z,16.08
2024-05-09T08:39:53.258Z,16.11
2024-05-09T08:40:53.326Z,16.17
2024-05-09T08:41:53.214Z,16.30
2024-05-09T08:42:53.274Z,16.39
2024-05-09T08:43:53.164Z,16.49
2024-05-09T08:44:53.203Z,16.53
2024-05-09T08:45:53.192Z,16.58
2024-05-09T08:46:53.208Z,16.58
2024-05-09T08:47:53.204Z,16.58
2024-05-09T08:48:53.302Z,16.50
2024-05-09T08:49:53.083Z,16.46
2024-05-09T08:50:53.271Z,16.42
2024-05-09T08:51:59.127Z,16.39
2024-05-09T08:52:53.059Z,16.48
2024-05-09T08:53:53.023Z,16.52
2024-05-09T08:54:53.075Z,16.57
2024-05-09T08:55:53.016Z,16.58
2024-05-09T08:56:53.000Z,16.66
2024-05-09T08:57:53.051Z,16.73
2024-05-09T08:58:52.978Z,16.78
2024-05-09T08:59:52.964Z,16.86
2024-05-09T09:00:53.078Z,16.94
2024-05-09T09:01:53.059Z,17.00
2024-05-09T09:02:53.000Z,17.07
2024-05-09T09:03:53.186Z,17.11
2024-05-09T09:04:53.049Z,17.18
2024-05-09T09:05:53.160Z,17.22
2024-05-09T09:06:54.755Z,17.26
2024-05-09T09:07:52.840Z,17.30
2024-05-09T09:08:52.880Z,17.30
2024-05-09T09:09:52.894Z,17.28
2024-05-09T09:10:52.854Z,17.25
2024-05-09T09:11:52.884Z,17.22
2024-05-09T09:12:52.860Z,17.21
2024-05-09T09:13:52.810Z,17.21
2024-05-09T09:14:52.871Z,17.16
2024-05-09T09:15:52.855Z,17.15
2024-05-09T09:16:52.797Z,17.12
2024-05-09T09:17:53.055Z,17.08
2024-05-09T09:18:53.132Z,17.08
2024-05-09T09:19:52.807Z,17.15
2024-05-09T09:20:52.782Z,17.18
2024-05-09T09:21:52.736Z,17.16
2024-05-09T09:22:52.727Z,17.19
2024-05-09T09:23:52.642Z,17.28
2024-05-09T09:24:52.754Z,17.30
2024-05-09T09:25:52.624Z,17.33
2024-05-09T09:26:52.597Z,17.37
2024-05-09T09:27:52.615Z,17.41
2024-05-09T09:28:52.587Z,17.46
2024-05-09T09:29:52.563Z,17.49
2024-05-09T09:30:52.604Z,17.54
2024-05-09T09:31:52.575Z,17.56
2024-05-09T09:32:52.661Z,17.62
2024-05-09T09:33:52.712Z,17.66
2024-05-09T09:34:52.547Z,17.71
2024-05-09T09:35:52.471Z,17.75
2024-05-09T09:36:52.542Z,17.74
2024-05-09T09:37:52.473Z,17.75
2024-05-09T09:38:52.454Z,17.74
2024-05-09T09:39:52.482Z,17.68
2024-05-09T09:40:52.501Z,17.71
2024-05-09T09:41:52.409Z,17.77
2024-05-09T09:42:52.438Z,17.82
2024-05-09T09:43:52.381Z,17.75
2024-05-09T09:45:01.891Z,17.78
2024-05-09T09:45:53.335Z,17.82
2024-05-09T09:46:52.382Z,17.90
2024-05-09T09:47:52.455Z,17.95
2024-05-09T09:48:52.402Z,17.99
2024-05-09T09:49:52.369Z,18.03
2024-05-09T09:50:52.442Z,18.02
2024-05-09T09:51:52.295Z,17.99
2024-05-09T09:52:52.257Z,17.99
2024-05-09T09:53:52.241Z,18.00
2024-05-09T09:54:52.250Z,17.92
2024-05-09T09:55:52.295Z,17.87
2024-05-09T09:56:52.204Z,17.93
2024-05-09T09:57:52.213Z,17.96
2024-05-09T09:58:52.273Z,17.99
2024-05-09T09:59:52.161Z,18.10
2024-05-09T10:00:52.247Z,18.18
2024-05-09T10:01:52.233Z,18.29
2024-05-09T10:02:52.171Z,18.35
2024-05-09T10:03:52.226Z,18.33
2024-05-09T10:04:52.210Z,18.27
2024-05-09T10:05:52.147Z,18.25
2024-05-09T10:06:52.217Z,18.29
2024-05-09T10:07:52.070Z,18.35
2024-05-09T10:08:52.069Z,18.42
2024-05-09T10:09:52.126Z,18.48
2024-05-09T10:10:52.411Z,18.50
2024-05-09T10:11:54.461Z,18.57
2024-05-09T10:12:52.042Z,18.63
2024-05-09T10:13:52.001Z,18.58
2024-05-09T10:14:51.981Z,18.55
2024-05-09T10:15:52.465Z,18.50
2024-05-09T10:16:51.947Z,18.50
2024-05-09T10:17:51.999Z,18.44
2024-05-09T10:18:52.130Z,18.39
2024-05-09T10:19:51.958Z,18.37
2024-05-09T10:20:51.918Z,18.32
2024-05-09T10:21:51.920Z,18.27
2024-05-09T10:22:51.898Z,18.23
2024-05-09T10:23:51.856Z,18.25
2024-05-09T10:24:51.912Z,18.32
2024-05-09T10:25:51.831Z,18.39
2024-05-09T10:26:51.829Z,18.44
2024-05-09T10:27:51.876Z,18.50
2024-05-09T10:28:51.806Z,18.50
2024-05-09T10:29:51.758Z,18.42
2024-05-09T10:30:51.799Z,18.41
2024-05-09T10:31:51.815Z,18.48
2024-05-09T10:32:51.800Z,18.55
2024-05-09T10:33:52.686Z,18.60
2024-05-09T10:34:51.753Z,18.63
2024-05-09T10:35:51.693Z,18.69
2024-05-09T10:36:51.737Z,18.80
2024-05-09T10:37:51.671Z,18.90
2024-05-09T10:38:51.653Z,19.04
2024-05-09T10:39:51.733Z,19.14
2024-05-09T10:40:51.657Z,19.26
2024-05-09T10:41:51.623Z,19.25
2024-05-09T10:42:51.659Z,19.22
2024-05-09T10:43:51.843Z,19.19
2024-05-09T10:44:51.585Z,19.06
2024-05-09T10:45:51.595Z,18.85
2024-05-09T10:46:51.626Z,18.81
2024-05-09T10:47:51.987Z,18.75
2024-05-09T10:48:51.658Z,18.78
2024-05-09T10:49:51.565Z,18.78
2024-05-09T10:50:51.482Z,18.85
2024-05-09T10:51:51.559Z,18.92
2024-05-09T10:52:51.488Z,18.91
2024-05-09T10:53:51.466Z,18.82
2024-05-09T10:54:51.442Z,18.66
2024-05-09T10:55:51.436Z,18.58
2024-05-09T10:56:51.516Z,18.57
2024-05-09T10:57:51.479Z,18.60
2024-05-09T10:58:51.416Z,18.66
2024-05-09T10:59:51.369Z,18.65
2024-05-09T11:00:51.451Z,18.66
2024-05-09T11:01:51.483Z,18.72
2024-05-09T11:02:51.399Z,18.78
2024-05-09T11:03:51.455Z,18.90
2024-05-09T11:04:51.431Z,19.00
2024-05-09T11:05:51.401Z,18.94
2024-05-09T11:06:51.323Z,19.00
2024-05-09T11:07:51.278Z,19.10
2024-05-09T11:08:51.289Z,19.22
2024-05-09T11:09:51.348Z,19.26
2024-05-09T11:10:51.276Z,19.28
2024-05-09T11:11:51.257Z,19.21
2024-05-09T11:12:51.262Z,19.07
2024-05-09T11:13:51.183Z,19.16
2024-05-09T11:14:51.193Z,19.31
2024-05-09T11:15:51.234Z,19.43
2024-05-09T11:16:51.156Z,19.51
2024-05-09T11:17:51.203Z,19.61
2024-05-09T11:18:51.325Z,19.71
2024-05-09T11:19:51.159Z,19.78
2024-05-09T11:20:51.182Z,19.87
2024-05-09T11:21:51.200Z,19.84
2024-05-09T11:22:51.094Z,19.76
2024-05-09T11:23:51.062Z,19.69
2024-05-09T11:24:51.075Z,19.74
2024-05-09T11:25:51.038Z,19.83
2024-05-09T11:26:51.021Z,19.91
2024-05-09T11:27:51.157Z,19.95
2024-05-09T11:28:51.159Z,19.99
2024-05-09T11:29:50.993Z,20.03
2024-05-09T11:30:51.038Z,20.10
2024-05-09T11:31:51.009Z,20.17
2024-05-09T11:32:51.001Z,20.28
2024-05-09T11:33:51.018Z,20.35
2024-05-09T11:34:50.914Z,20.41
2024-05-09T11:35:50.897Z,20.41
2024-05-09T11:36:50.928Z,20.38
2024-05-09T11:37:50.874Z,20.18
2024-05-09T11:38:50.873Z,20.20
2024-05-09T11:39:50.894Z,20.29
2024-05-09T11:40:50.905Z,20.33
2024-05-09T11:41:50.821Z,20.31
2024-05-09T11:42:53.020Z,20.23
2024-05-09T11:43:50.793Z,20.11
2024-05-09T11:44:50.775Z,19.92
2024-05-09T11:45:50.809Z,19.86
2024-05-09T11:46:50.752Z,19.83
2024-05-09T11:47:50.786Z,19.87
2024-05-09T11:48:50.858Z,19.94
2024-05-09T11:49:50.765Z,20.05
2024-05-09T11:50:50.747Z,20.13
2024-05-09T11:51:50.789Z,20.21
2024-05-09T11:52:50.682Z,20.28
2024-05-09T11:53:50.693Z,20.32
2024-05-09T11:54:50.687Z,20.36
2024-05-09T11:55:50.633Z,20.41
2024-05-09T11:56:50.643Z,20.47
2024-05-09T11:57:50.735Z,20.54
2024-05-09T11:58:50.607Z,20.55
2024-05-09T11:59:50.617Z,20.57
2024-05-09T12:00:50.753Z,20.64
2024-05-09T12:01:50.616Z,20.72
2024-05-09T12:02:50.580Z,20.74
2024-05-09T12:03:50.666Z,20.67
2024-05-09T12:04:50.576Z,20.59
2024-05-09T12:05:50.671Z,20.61
2024-05-09T12:06:50.555Z,20.66
2024-05-09T12:07:50.489Z,20.54
2024-05-09T12:08:50.499Z,20.51
2024-05-09T12:09:50.500Z,20.41
2024-05-09T12:10:50.647Z,20.32
2024-05-09T12:11:50.523Z,20.29
2024-05-09T12:12:50.496Z,20.36
2024-05-09T12:13:50.456Z,20.48
2024-05-09T12:14:50.420Z,20.54
2024-05-09T12:15:50.441Z,20.58
2024-05-09T12:16:50.423Z,20.62
2024-05-09T12:17:51.082Z,20.47
2024-05-09T12:18:50.449Z,20.42
2024-05-09T12:19:50.340Z,20.41
2024-05-09T12:20:50.341Z,20.33
2024-05-09T12:21:50.395Z,20.18
2024-05-09T12:22:50.286Z,20.06
2024-05-09T12:23:50.284Z,20.06
2024-05-09T12:24:50.355Z,20.20
2024-05-09T12:25:50.283Z,20.36
2024-05-09T12:26:50.264Z,20.50
2024-05-09T12:27:50.296Z,20.64
2024-05-09T12:28:50.207Z,20.70
2024-05-09T12:29:50.210Z,20.72
2024-05-09T12:30:50.255Z,20.77
2024-05-09T12:31:50.202Z,20.88
2024-05-09T12:32:50.401Z,20.95
2024-05-09T12:33:50.257Z,20.98
2024-05-09T12:34:50.140Z,20.99
2024-05-09T12:35:51.125Z,21.07
2024-05-09T12:36:50.175Z,21.16
2024-05-09T12:37:50.107Z,21.21
2024-05-09T12:38:50.097Z,21.24
2024-05-09T12:39:50.109Z,21.29
2024-05-09T12:40:50.322Z,21.35
2024-05-09T12:41:50.031Z,21.42
2024-05-09T12:42:50.060Z,21.44
2024-05-09T12:43:50.021Z,21.16
2024-05-09T12:44:50.018Z,21.16
2024-05-09T12:45:50.026Z,21.25
2024-05-09T12:46:50.046Z,21.35
2024-05-09T12:47:50.125Z,21.50
2024-05-09T12:48:50.173Z,21.61
2024-05-09T12:49:50.021Z,21.71
2024-05-09T12:50:49.946Z,21.80
2024-05-09T12:51:49.984Z,21.90
2024-05-09T12:52:49.882Z,21.92
2024-05-09T12:53:49.903Z,21.64
2024-05-09T12:54:49.888Z,21.32
2024-05-09T12:55:56.692Z,21.21
2024-05-09T12:56:49.850Z,21.13
2024-05-09T12:57:49.883Z,21.07
2024-05-09T12:58:49.807Z,21.17
2024-05-09T12:59:49.839Z,21.29
2024-05-09T13:00:49.986Z,21.43
2024-05-09T13:01:49.830Z,21.59
2024-05-09T13:02:49.794Z,21.74
2024-05-09T13:03:50.043Z,21.88
2024-05-09T13:04:49.786Z,22.02
2024-05-09T13:05:49.960Z,22.15
2024-05-09T13:06:49.821Z,22.27
2024-05-09T13:07:49.706Z,22.18
2024-05-09T13:08:49.715Z,21.90
2024-05-09T13:09:49.682Z,21.74